Anapa, Russia

12:06 AM MSK on August 30, 2014 (GMT +0400)
Vityazevo | Change Station
CLOSE
Current Station
Airport
Location: Anapa,
Elevation: 174 ft
Nearby Weather Stations

Elev 174 ft 45.00 °N, 37.35 °E | Updated 36 minutes ago

Clear
Clear
55 °F
Feels Like 55 °F
N
4
Wind Variable Wind from NE

Today
High -- | Low -- °F
--% Chance of Precip.
Yesterday
High -- | Low -- °F
Precip. -- in
6:50 AM 8:11 PM
Waxing Crescent, 16% visible
Pressure 30.06 in
Visibility -9999.0 miles
Clouds
Dew Point 46 °F
Humidity 72%
Rainfall 0.00 in
Snow Depth Not available.
UV Not available.
Pollen Not available.
Air Quality Not available.
Flu Activity Not available.
METAR URKA 291930Z 04002MPS CAVOK 13/08 Q1018 NOSIG RMK QFE760/1013 SC070

More Conditions Fewer Conditions

Pressure 30.06 in
Visibility -9999.0 miles
Clouds
Dew Point 46 °F
Humidity 72%
Rainfall 0.00 in
Snow Depth Not available.
UV Not available.
Pollen Not available.
Air Quality Not available.
Flu Activity Not available.
METAR URKA 291930Z 04002MPS CAVOK 13/08 Q1018 NOSIG RMK QFE760/1013 SC070

More Conditions Fewer Conditions

10-Day Weather Forecast

Almanac

Astronomy

Aug. 30, 2014 Rise Set
Actual Time 6:50 AM MSK 8:11 PM MSK
Civil Twilight 6:19 AM MSK 8:42 PM MSK
Nautical Twilight 5:42 AM MSK 9:18 PM MSK
Astronomical Twilight 5:03 AM MSK 9:57 PM MSK
Moon 11:30 AM MSK (8/30) 10:18 PM MSK (8/30)
Length of Visible Light 14h 22m
Length of Day
13h 21m
Tomorrow will be 2m 59s shorter.
Waxing Crescent, 16% of the Moon is Illuminated
Aug 29
Waxing Crescent
Sep 2
First Quarter
Sep 8
Full
Sep 15
Last Quarter
Sep 24
New

Yesterday's Extremes

Country Highs Country Lows

Community

WunderPhotos

Upload Photos

1,748,329 photos uploaded!

WunderBlogs® & News

By Dr. Jeff Masters
Director of Meteorology, Weather Underground
By Kari Strenfel
Meteorologist, Weather Underground
By Christopher C. Burt
Weather Historian, Weather Underground
August 29, 2014
August 29, 2014
August 29, 2014

Nearby

Snow Depth

Not available.

Earthquake Activity

City Distance Mag. Time & Date
No recent earthquake activity has been reported nearby.
Minimum magnitude displayed is 2.5.

Coastal Water Temperatures

Place Temperature
No Stations Reporting

Nearby Weather Stations